Flight Track Log - Related Links

Times and Time Zones

All times are in EDT time to prevent confusion due to time zone crossing. See the N89UM flight status page for this flight to view local times or setup timezone preferences in your user account.

Time Position Orientation Groundspeed Altitude Reporting Facility
EDT Latitude Longitude Course Direction KTS MPH feet Rate Location/Type
Mon 12:32:43 PM 33.4958 -86.1811 116° Southeast 170 196 4,500  Level Atlanta Center
Mon 12:33:43 PM 33.4567 -86.1578 154° Southeast 148 170 5,000 400 Climbing Atlanta Center
Mon 12:34:43 PM 33.4153 -86.1392 159° South 162 186 5,300 550 Climbing Atlanta Center
Mon 12:35:43 PM 33.3950 -86.1039 125° Southeast 152 175 6,100 800 Climbing Atlanta Center
Mon 12:36:00 PM 33.3385 -86.0987 121° Southeast  Level Estimated
Mon 12:36:43 PM 33.3833 -86.0589 107° East 136 157 6,900  Level Atlanta Center
Mon 12:37:00 PM 33.3017 -86.0737 116° Southeast  Level Estimated
Mon 12:37:43 PM 33.3672 -86.0161 114° Southeast 129 148 7,700  Level Atlanta Center
Mon 12:38:43 PM 33.3511 -85.9786 117° Southeast 129 148 8,300 600 Climbing Atlanta Center
Mon 12:39:43 PM 33.3331 -85.9308 114° Southeast 137 158 8,900 600 Climbing Atlanta Center
Mon 12:40:43 PM 33.3169 -85.8883 114° Southeast 137 158 9,500 550 Climbing Atlanta Center
Mon 12:41:43 PM 33.3008 -85.8483 116° Southeast 137 158 10,000 550 Climbing Atlanta Center
Mon 12:42:43 PM 33.2828 -85.8031 115° Southeast 137 158 10,600 500 Climbing Atlanta Center
Mon 12:43:43 PM 33.2647 -85.7581 116° Southeast 137 158 11,000 200 Climbing Atlanta Center
Mon 12:44:43 PM 33.2339 -85.7200 134° Southeast 143 165 11,000 -50 Level Atlanta Center
Mon 12:45:43 PM 33.1883 -85.6894 151° Southeast 165 190 10,900  Descending Atlanta Center
Mon 12:46:43 PM 33.1450 -85.6439 139° Southeast 190 219 11,000 100 Climbing Atlanta Center
Mon 12:47:43 PM 33.1017 -85.6061 144° Southeast 195 224 11,100  Climbing Atlanta Center
Mon 12:48:43 PM 33.0606 -85.5681 142° Southeast 195 224 11,000 -100 Descending Atlanta Center
Mon 12:49:43 PM 33.0172 -85.5278 142° Southeast 195 224 10,900 -50 Descending Atlanta Center
Mon 12:50:43 PM 32.9739 -85.4872 142° Southeast 195 224 10,900  Level Atlanta Center
Mon 12:51:43 PM 32.9303 -85.4494 144° Southeast 195 224 10,900  Level Atlanta Center
Mon 12:52:43 PM 32.8892 -85.4092 141° Southeast 195 224 10,900  Level Atlanta Center
Mon 12:53:43 PM 32.8458 -85.3692 142° Southeast 200 230 10,900  Level Atlanta Center
Mon 12:54:43 PM 32.8022 -85.3289 142° Southeast 200 230 10,900  Level Atlanta Center
Mon 12:55:43 PM 32.7608 -85.2911 142° Southeast 200 230 10,900  Level Atlanta Center
Mon 12:56:43 PM 32.7156 -85.2511 143° Southeast 200 230 10,900  Level Atlanta Center
Mon 12:57:43 PM 32.6742 -85.2133 142° Southeast 200 230 10,900  Level Atlanta Center
Mon 12:58:43 PM 32.6286 -85.1708 142° Southeast 200 230 10,900  Level Atlanta Center
Mon 12:59:43 PM 32.5872 -85.1333 143° Southeast 200 230 10,900  Level Atlanta Center
Mon 01:00:44 PM 32.5436 -85.0933 142° Southeast 200 230 10,900  Level Atlanta Center
Mon 01:01:43 PM 32.5022 -85.0586 145° Southeast 200 230 10,900  Level Atlanta Center
Mon 01:02:43 PM 32.4586 -85.0186 142° Southeast 200 230 10,900  Level Atlanta Center
Mon 01:03:43 PM 32.4172 -84.9789 141° Southeast 200 230 10,900  Level Atlanta Center
Mon 01:04:43 PM 32.3736 -84.9389 142° Southeast 200 230 10,900  Level Atlanta Center
Mon 01:07:04 PM 32.2767 -84.8533 143° Southeast 199 229 10,900 -30 Level Jacksonville Center
Mon 01:08:04 PM 32.2333 -84.8156 144° Southeast 199 229 10,800  Descending Jacksonville Center
Mon 01:09:04 PM 32.1922 -84.7756 141° Southeast 199 229 10,900 50 Climbing Jacksonville Center
Mon 01:10:04 PM 32.1469 -84.7353 143° Southeast 199 229 10,900  Level Jacksonville Center
Mon 01:11:04 PM 32.1014 -84.6975 145° Southeast 199 229 10,900  Level Jacksonville Center
Mon 01:12:04 PM 32.0622 -84.6600 141° Southeast 199 229 10,900  Level Jacksonville Center
Mon 01:13:04 PM 32.0108 -84.6175 145° Southeast 199 229 10,900 50 Level Jacksonville Center
Mon 01:14:04 PM 31.9778 -84.5850 140° Southeast 199 229 11,000  Climbing Jacksonville Center
Mon 01:15:04 PM 31.9325 -84.5450 143° Southeast 177 204 10,900 -50 Descending Jacksonville Center
Mon 01:16:04 PM 31.8869 -84.5050 143° Southeast 195 224 10,900 -50 Level Jacksonville Center
Mon 01:17:04 PM 31.8436 -84.4675 144° Southeast 195 224 10,800  Descending Jacksonville Center
Mon 01:18:04 PM 31.8003 -84.4278 142° Southeast 195 224 10,900 50 Climbing Jacksonville Center
Mon 01:19:04 PM 31.7589 -84.3881 141° Southeast 195 224 10,900  Level Jacksonville Center
Mon 01:20:04 PM 31.7133 -84.3506 145° Southeast 195 224 10,900 50 Level Jacksonville Center
Mon 01:21:04 PM 31.6722 -84.3083 139° Southeast 195 224 11,000  Climbing Jacksonville Center
Mon 01:22:04 PM 31.6222 -84.2808 155° Southeast 200 230 10,900 -50 Descending Jacksonville Center
Mon 01:23:04 PM 31.5725 -84.2606 161° South 195 224 10,900  Level Jacksonville Center
Mon 01:24:04 PM 31.5247 -84.2356 156° South 190 219 10,900  Level Jacksonville Center
Mon 01:25:04 PM 31.4747 -84.2128 159° South 190 219 10,900  Level Jacksonville Center
Mon 01:26:04 PM 31.4250 -84.1903 159° South 190 219 10,900  Level Jacksonville Center
Mon 01:27:04 PM 31.3772 -84.1678 158° South 190 219 10,900  Level Jacksonville Center
Mon 01:28:04 PM 31.3294 -84.1428 156° South 190 219 10,900  Level Jacksonville Center
Mon 01:29:04 PM 31.2794 -84.1203 159° South 190 219 10,900  Level Jacksonville Center
Mon 01:30:04 PM 31.2297 -84.0953 157° South 195 224 10,900  Level Jacksonville Center
Mon 01:31:04 PM 31.1797 -84.0728 159° South 195 224 10,900  Level Jacksonville Center
Mon 01:32:04 PM 31.1319 -84.0478 156° South 190 219 10,900  Level Jacksonville Center
Mon 01:33:04 PM 31.0819 -84.0256 159° South 190 219 10,900  Level Jacksonville Center
Mon 01:34:04 PM 31.0342 -84.0056 160° South 190 219 10,900  Level Jacksonville Center
Mon 01:35:04 PM 30.9842 -83.9806 157° South 190 219 10,900  Level Jacksonville Center
Mon 01:36:04 PM 30.9344 -83.9606 161° South 190 219 10,900  Level Jacksonville Center
Mon 01:37:04 PM 30.8844 -83.9358 157° South 190 219 10,900  Level Jacksonville Center
Mon 01:38:04 PM 30.8325 -83.9161 162° South 190 219 10,900  Level Jacksonville Center
Mon 01:39:04 PM 30.7844 -83.8914 156° South 190 219 10,900  Level Jacksonville Center
Mon 01:40:04 PM 30.7347 -83.8667 157° South 190 219 10,900  Level Jacksonville Center
Mon 01:41:04 PM 30.6825 -83.8442 160° South 190 219 10,900  Level Jacksonville Center
Mon 01:42:04 PM 30.6347 -83.8197 156° South 190 219 10,900  Level Jacksonville Center
Mon 01:43:04 PM 30.5828 -83.7975 160° South 190 219 10,900  Level Jacksonville Center
Mon 01:44:04 PM 30.5350 -83.7706 154° Southeast 190 219 10,900  Level Jacksonville Center
Mon 01:45:04 PM 30.4892 -83.7364 147° Southeast 190 219 10,900  Level Jacksonville Center
Mon 01:46:04 PM 30.4456 -83.7022 146° Southeast 195 224 10,900  Level Jacksonville Center
Mon 01:47:04 PM 30.4019 -83.6681 146° Southeast 195 224 10,900  Level Jacksonville Center
Mon 01:48:04 PM 30.3583 -83.6342 146° Southeast 190 219 10,900  Level Jacksonville Center
Mon 01:49:04 PM 30.3147 -83.6000 146° Southeast 190 219 10,900  Level Jacksonville Center
Mon 01:50:04 PM 30.2689 -83.5636 146° Southeast 190 219 10,900  Level Jacksonville Center
Mon 01:51:04 PM 30.2231 -83.5297 147° Southeast 190 219 10,900  Level Jacksonville Center
Mon 01:52:04 PM 30.1794 -83.4956 146° Southeast 190 219 10,900  Level Jacksonville Center
Mon 01:53:04 PM 30.1317 -83.4594 147° Southeast 195 224 10,900  Level Jacksonville Center
Mon 01:54:04 PM 30.0858 -83.4231 146° Southeast 195 224 10,900  Level Jacksonville Center
Mon 01:55:04 PM 30.0422 -83.3892 146° Southeast 190 219 10,900  Level Jacksonville Center
Mon 01:56:04 PM 29.9964 -83.3556 148° Southeast 190 219 10,900  Level Jacksonville Center
Mon 01:57:04 PM 29.9506 -83.3192 145° Southeast 190 219 10,900  Level Jacksonville Center
Mon 01:58:04 PM 29.9047 -83.2856 148° Southeast 190 219 10,900  Level Jacksonville Center
Mon 01:59:04 PM 29.8611 -83.2494 144° Southeast 190 219 10,900  Level Jacksonville Center
Mon 02:00:04 PM 29.8153 -83.2133 146° Southeast 197 227 10,900  Level Jacksonville Center
Mon 02:01:04 PM 29.7714 -83.1822 148° Southeast 192 221 10,900  Level Jacksonville Center
Mon 02:02:04 PM 29.7275 -83.1461 144° Southeast 187 215 10,900  Level Jacksonville Center
Mon 02:03:04 PM 29.6817 -83.1125 147° Southeast 193 222 10,900  Level Jacksonville Center
Mon 02:04:04 PM 29.6381 -83.0789 146° Southeast 193 222 10,900  Level Jacksonville Center
Mon 02:05:04 PM 29.5919 -83.0456 148° Southeast 188 216 10,900  Level Jacksonville Center
Mon 02:06:04 PM 29.5461 -83.0167 151° Southeast 187 215 10,900  Level Jacksonville Center
Mon 02:07:04 PM 29.5003 -82.9881 151° Southeast 187 215 10,900  Level Jacksonville Center
Mon 02:08:04 PM 29.4522 -82.9544 149° Southeast 187 215 10,900  Level Jacksonville Center
Mon 02:09:04 PM 29.4083 -82.9258 150° Southeast 187 215 10,900  Level Jacksonville Center
Mon 02:10:04 PM 29.3564 -82.8925 151° Southeast 187 215 10,900 50 Level Jacksonville Center
Mon 02:11:04 PM 29.3103 -82.8617 150° Southeast 192 221 11,000 50 Climbing Jacksonville Center
Mon 02:12:04 PM 29.2644 -82.8331 151° Southeast 192 221 11,000 -66 Level Jacksonville Center
Mon 02:12:35 PM 29.2414 -82.8189 152° Southeast 185 213 10,900  Descending Jacksonville Center
Mon 02:13:04 PM 29.2183 -82.8022 148° Southeast 192 221 11,000  Climbing Jacksonville Center
Mon 02:13:42 PM 29.1872 -82.7856 155° Southeast 189 217 10,900 -200 Descending Jacksonville Center
Mon 02:14:04 PM 29.1725 -82.7736 145° Southeast 187 215 10,800 -295 Descending Jacksonville Center
Mon 02:14:43 PM 29.1392 -82.7572 157° South 193 222 10,600 -400 Descending Jacksonville Center
Mon 02:15:04 PM 29.1244 -82.7428 139° Southeast 187 215 10,400 -295 Descending Jacksonville Center
Mon 02:15:44 PM 29.0931 -82.7239 152° Southeast 209 241 10,300 -300 Descending Jacksonville Center
Mon 02:16:04 PM 29.0764 -82.7097 143° Southeast 192 221 10,100 -393 Descending Jacksonville Center
Mon 02:16:45 PM 29.0431 -82.6883 151° Southeast 206 237 9,900 -300 Descending Jacksonville Center
Mon 02:17:04 PM 29.0264 -82.6789 154° Southeast 197 227 9,800 -295 Descending Jacksonville Center
Mon 02:17:46 PM 28.9886 -82.6575 154° Southeast 201 231 9,600 -300 Descending Jacksonville Center
Mon 02:18:04 PM 28.9783 -82.6458 135° Southeast 197 227 9,500 -218 Descending Jacksonville Center
Mon 02:18:41 PM 28.9469 -82.6292 155° Southeast 198 228 9,400 -300 Descending Jacksonville Center
Mon 02:19:04 PM 28.9303 -82.6175 149° Southeast 197 227 9,200 -393 Descending Jacksonville Center
Mon 02:19:42 PM 28.8989 -82.5986 152° Southeast 190 219 9,000 -200 Descending Jacksonville Center
Mon 02:20:04 PM 28.8842 -82.5844 140° Southeast 202 232 9,000  Level Jacksonville Center
Mon 02:20:43 PM 28.8528 -82.5678 155° Southeast 192 221 9,000  Level Jacksonville Center
Mon 02:21:04 PM 28.8381 -82.5583 151° Southeast 197 227 9,000  Level Jacksonville Center
Mon 02:22:04 PM 28.7942 -82.5300 150° Southeast 192 221 9,000  Level Jacksonville Center
Mon 02:24:25 PM 28.7000 -82.4667 149° Southeast 181 208 9,000  Level Tampa TRACON
Mon 02:25:31 PM 28.6500 -82.4333 150° Southeast 181 208 9,000  Level Tampa TRACON
Mon 02:26:25 PM 28.6000 -82.4167 164° South 180 207 9,000  Level Tampa TRACON
Mon 02:27:25 PM 28.5667 -82.3833 139° Southeast 182 209 9,000  Level Tampa TRACON
Mon 02:28:31 PM 28.5167 -82.3500 150° Southeast 181 208 9,000  Level Tampa TRACON
Mon 02:29:31 PM 28.4667 -82.3167 150° Southeast 180 207 9,000  Level Tampa TRACON
Mon 02:30:31 PM 28.4167 -82.3000 164° South 181 208 9,000  Level Tampa TRACON
Mon 02:31:26 PM 28.3833 -82.2667 139° Southeast 183 211 9,000  Level Tampa TRACON
Mon 02:32:26 PM 28.3333 -82.2500 164° South 174 200 9,000  Level Tampa TRACON
Mon 02:33:26 PM 28.2833 -82.2500 180° South 170 196 9,000  Level Tampa TRACON
Mon 02:34:32 PM 28.2333 -82.2333 164° South 168 193 9,000  Level Tampa TRACON
Mon 02:35:38 PM 28.1833 -82.2167 164° South 168 193 9,000  Level Tampa TRACON
Mon 02:36:32 PM 28.1500 -82.2167 180° South 167 192 9,000  Level Tampa TRACON
Mon 02:37:32 PM 28.1000 -82.2000 164° South 167 192 9,000  Level Tampa TRACON
Mon 02:38:33 PM 28.0500 -82.2000 180° South 168 193 9,000  Level Tampa TRACON
Mon 02:39:33 PM 28.0167 -82.1833 156° South 167 192 9,000  Level Tampa TRACON
Mon 02:41:22 PM 27.9289 -82.1769 176° South 150 173 9,000  Level Miami Center
Mon 02:42:22 PM 27.8811 -82.1675 170° South 164 189 9,000  Level Miami Center
Mon 02:43:22 PM 27.8378 -82.1586 170° South 169 194 9,000  Level Miami Center
Mon 02:44:22 PM 27.7900 -82.1492 170° South 176 203 9,000  Level Miami Center
Mon 02:45:22 PM 27.7444 -82.1425 173° South 176 203 9,000  Level Miami Center
Mon 02:46:22 PM 27.6925 -82.1331 171° South 176 203 9,000  Level Miami Center
Mon 02:47:22 PM 27.6469 -82.1239 170° South 176 203 9,000  Level Miami Center
Mon 02:48:22 PM 27.6014 -82.1147 170° South 176 203 9,000 -200 Level Miami Center
Mon 02:49:22 PM 27.5578 -82.1081 172° South 176 203 8,600 -450 Descending Miami Center
Mon 02:50:22 PM 27.5019 -82.0986 171° South 181 208 8,100 -400 Descending Miami Center
Mon 02:51:22 PM 27.4500 -82.0892 171° South 181 208 7,800 -350 Descending Miami Center
Mon 02:52:22 PM 27.3983 -82.0797 171° South 181 208 7,400 -400 Descending Miami Center
Mon 02:53:22 PM 27.3486 -82.0706 171° South 181 208 7,000 -200 Descending Miami Center
Mon 02:54:22 PM 27.3008 -82.0614 170° South 181 208 7,000  Level Miami Center
Mon 02:55:22 PM 27.2531 -82.0544 173° South 176 203 7,000  Level Miami Center
Mon 02:56:22 PM 27.2053 -82.0453 170° South 176 203 7,000  Level Miami Center
Mon 02:57:22 PM 27.1556 -82.0361 171° South 181 208 7,000  Level Miami Center
Mon 02:58:22 PM 27.1100 -82.0294 173° South 176 203 7,000 -50 Level Miami Center
Mon 02:59:22 PM 27.0622 -82.0181 168° South 176 203 6,900 -250 Descending Miami Center
Mon 03:00:22 PM 27.0108 -82.0017 164° South 181 208 6,500 -400 Descending Miami Center
Mon 03:01:22 PM 26.9636 -81.9739 152° Southeast 181 208 6,100 -300 Descending Miami Center
Mon 03:02:22 PM 26.9167 -81.9486 154° Southeast 191 220 5,900 -300 Descending Miami Center
Mon 03:03:22 PM 26.8717 -81.9233 153° Southeast 191 220 5,500 -756 Descending Miami Center
Mon 03:04:21 PM 26.8300 -81.9147 170° South 191 220 4,400 -1,119 Descending Miami Center
Mon 03:06:00 PM 26.7491 -81.9006 171° South  Level FlightAware Approximate
Mon 03:13:00 PM 26.5833 -81.8500 156° South  Level FlightAware Approximate
Mon 03:14:00 PM 26.5866 -81.8633 156° South  Level Estimated
Mon 03:15:00 PM 26.5866 -81.8633 156° South  Level Estimated
Mon 03:16:00 PM 26.5866 -81.8633 156° South  Level Estimated
Mon 03:17:00 PM 26.5866 -81.8633 156° South  Level Estimated

Login

Don't have an account? Register now (free) for customized features, flight alerts, and more!